sensor_id;sensor_type;location;lat;lon;timestamp;temperature;humidity
63047;DHT22;62025;39.238;9.126;2023-04-08T00:00:14;14.80;64.50
63047;DHT22;62025;39.238;9.126;2023-04-08T00:02:40;14.80;64.50
63047;DHT22;62025;39.238;9.126;2023-04-08T00:05:06;14.80;64.60
63047;DHT22;62025;39.238;9.126;2023-04-08T00:07:33;14.70;64.80
63047;DHT22;62025;39.238;9.126;2023-04-08T00:09:59;14.70;65.00
63047;DHT22;62025;39.238;9.126;2023-04-08T00:12:25;14.60;65.30
63047;DHT22;62025;39.238;9.126;2023-04-08T00:14:51;14.70;65.50
63047;DHT22;62025;39.238;9.126;2023-04-08T00:17:17;14.60;65.80
63047;DHT22;62025;39.238;9.126;2023-04-08T00:19:43;14.60;65.80
63047;DHT22;62025;39.238;9.126;2023-04-08T00:22:10;14.50;65.90
63047;DHT22;62025;39.238;9.126;2023-04-08T00:24:36;14.60;65.50
63047;DHT22;62025;39.238;9.126;2023-04-08T00:27:02;14.60;65.10
63047;DHT22;62025;39.238;9.126;2023-04-08T00:29:28;14.60;65.00
63047;DHT22;62025;39.238;9.126;2023-04-08T00:31:55;14.60;64.70
63047;DHT22;62025;39.238;9.126;2023-04-08T00:34:22;14.60;64.60
63047;DHT22;62025;39.238;9.126;2023-04-08T00:36:48;14.60;64.60
63047;DHT22;62025;39.238;9.126;2023-04-08T00:39:15;14.60;64.80
63047;DHT22;62025;39.238;9.126;2023-04-08T00:41:41;14.40;65.30
63047;DHT22;62025;39.238;9.126;2023-04-08T00:44:07;14.50;65.00
63047;DHT22;62025;39.238;9.126;2023-04-08T00:46:37;14.50;65.30
63047;DHT22;62025;39.238;9.126;2023-04-08T00:49:05;14.40;65.60
63047;DHT22;62025;39.238;9.126;2023-04-08T00:51:32;14.40;65.70
63047;DHT22;62025;39.238;9.126;2023-04-08T00:54:01;14.40;65.60
63047;DHT22;62025;39.238;9.126;2023-04-08T00:56:30;14.40;65.40
63047;DHT22;62025;39.238;9.126;2023-04-08T00:59:01;14.40;65.40
63047;DHT22;62025;39.238;9.126;2023-04-08T01:07:31;14.30;65.40
63047;DHT22;62025;39.238;9.126;2023-04-08T01:10:25;14.30;65.40
63047;DHT22;62025;39.238;9.126;2023-04-08T01:12:55;14.30;65.40
63047;DHT22;62025;39.238;9.126;2023-04-08T01:15:25;14.20;65.40
63047;DHT22;62025;39.238;9.126;2023-04-08T01:17:54;14.20;65.50
63047;DHT22;62025;39.238;9.126;2023-04-08T01:20:23;14.20;65.50
63047;DHT22;62025;39.238;9.126;2023-04-08T01:25:35;14.10;65.60
63047;DHT22;62025;39.238;9.126;2023-04-08T01:28:15;14.20;65.60
63047;DHT22;62025;39.238;9.126;2023-04-08T01:30:44;14.20;65.60
63047;DHT22;62025;39.238;9.126;2023-04-08T01:33:14;14.10;65.80
63047;DHT22;62025;39.238;9.126;2023-04-08T01:35:42;14.10;65.90
63047;DHT22;62025;39.238;9.126;2023-04-08T01:38:14;14.10;65.90
63047;DHT22;62025;39.238;9.126;2023-04-08T01:40:44;14.10;65.90
63047;DHT22;62025;39.238;9.126;2023-04-08T01:43:13;14.10;65.90
63047;DHT22;62025;39.238;9.126;2023-04-08T01:45:43;14.10;65.90
63047;DHT22;62025;39.238;9.126;2023-04-08T01:48:12;14.10;65.80
63047;DHT22;62025;39.238;9.126;2023-04-08T01:50:43;14.10;65.90
63047;DHT22;62025;39.238;9.126;2023-04-08T01:53:12;14.10;65.80
63047;DHT22;62025;39.238;9.126;2023-04-08T01:55:39;14.10;65.70
63047;DHT22;62025;39.238;9.126;2023-04-08T01:58:06;14.00;65.60
63047;DHT22;62025;39.238;9.126;2023-04-08T02:00:34;14.00;65.60
63047;DHT22;62025;39.238;9.126;2023-04-08T02:03:02;13.90;65.70
63047;DHT22;62025;39.238;9.126;2023-04-08T02:05:30;13.90;65.90
63047;DHT22;62025;39.238;9.126;2023-04-08T02:07:56;13.90;66.00
63047;DHT22;62025;39.238;9.126;2023-04-08T02:10:22;13.80;66.50
63047;DHT22;62025;39.238;9.126;2023-04-08T02:12:48;13.90;66.30
63047;DHT22;62025;39.238;9.126;2023-04-08T02:15:15;13.90;66.20
63047;DHT22;62025;39.238;9.126;2023-04-08T02:17:51;13.90;66.20
63047;DHT22;62025;39.238;9.126;2023-04-08T02:20:37;13.80;66.70
63047;DHT22;62025;39.238;9.126;2023-04-08T02:23:19;13.80;66.70
63047;DHT22;62025;39.238;9.126;2023-04-08T02:25:47;13.80;66.90
63047;DHT22;62025;39.238;9.126;2023-04-08T02:28:17;13.80;66.80
63047;DHT22;62025;39.238;9.126;2023-04-08T02:30:49;13.80;67.00
63047;DHT22;62025;39.238;9.126;2023-04-08T02:33:18;13.80;67.00
63047;DHT22;62025;39.238;9.126;2023-04-08T02:35:47;13.80;67.20
63047;DHT22;62025;39.238;9.126;2023-04-08T02:38:14;13.80;67.20
63047;DHT22;62025;39.238;9.126;2023-04-08T02:40:42;13.80;67.30
63047;DHT22;62025;39.238;9.126;2023-04-08T02:43:08;13.80;67.30
63047;DHT22;62025;39.238;9.126;2023-04-08T02:45:41;13.80;67.50
63047;DHT22;62025;39.238;9.126;2023-04-08T02:48:08;13.80;67.40
63047;DHT22;62025;39.238;9.126;2023-04-08T02:50:34;13.80;67.60
63047;DHT22;62025;39.238;9.126;2023-04-08T02:53:01;13.80;67.70
63047;DHT22;62025;39.238;9.126;2023-04-08T02:55:29;13.60;68.20
63047;DHT22;62025;39.238;9.126;2023-04-08T02:57:55;13.60;68.20
63047;DHT22;62025;39.238;9.126;2023-04-08T03:00:21;13.60;68.30
63047;DHT22;62025;39.238;9.126;2023-04-08T03:02:47;13.70;68.10
63047;DHT22;62025;39.238;9.126;2023-04-08T03:05:13;13.70;67.90
63047;DHT22;62025;39.238;9.126;2023-04-08T03:07:41;13.70;68.00
63047;DHT22;62025;39.238;9.126;2023-04-08T03:10:07;13.60;68.10
63047;DHT22;62025;39.238;9.126;2023-04-08T03:12:33;13.70;68.10
63047;DHT22;62025;39.238;9.126;2023-04-08T03:14:59;13.70;67.70
63047;DHT22;62025;39.238;9.126;2023-04-08T03:17:29;13.70;67.80
63047;DHT22;62025;39.238;9.126;2023-04-08T03:19:58;13.70;67.80
63047;DHT22;62025;39.238;9.126;2023-04-08T03:22:24;13.70;67.80
63047;DHT22;62025;39.238;9.126;2023-04-08T03:24:50;13.60;68.20
63047;DHT22;62025;39.238;9.126;2023-04-08T03:27:16;13.60;68.20
63047;DHT22;62025;39.238;9.126;2023-04-08T03:29:42;13.70;67.90
63047;DHT22;62025;39.238;9.126;2023-04-08T03:32:10;13.60;67.80
63047;DHT22;62025;39.238;9.126;2023-04-08T03:34:36;13.60;68.00
63047;DHT22;62025;39.238;9.126;2023-04-08T03:37:02;13.60;68.10
63047;DHT22;62025;39.238;9.126;2023-04-08T03:39:28;13.50;68.20
63047;DHT22;62025;39.238;9.126;2023-04-08T03:41:54;13.40;68.70
63047;DHT22;62025;39.238;9.126;2023-04-08T03:44:20;13.40;68.60
63047;DHT22;62025;39.238;9.126;2023-04-08T03:46:46;13.50;68.30
63047;DHT22;62025;39.238;9.126;2023-04-08T03:49:12;13.60;68.00
63047;DHT22;62025;39.238;9.126;2023-04-08T03:51:38;13.60;68.00
63047;DHT22;62025;39.238;9.126;2023-04-08T03:54:04;13.50;67.90
63047;DHT22;62025;39.238;9.126;2023-04-08T03:56:30;13.50;68.20
63047;DHT22;62025;39.238;9.126;2023-04-08T03:58:56;13.40;68.20
63047;DHT22;62025;39.238;9.126;2023-04-08T04:01:22;13.40;68.40
63047;DHT22;62025;39.238;9.126;2023-04-08T04:03:48;13.30;68.40
63047;DHT22;62025;39.238;9.126;2023-04-08T04:06:14;13.30;68.80
63047;DHT22;62025;39.238;9.126;2023-04-08T04:08:40;13.30;68.50
63047;DHT22;62025;39.238;9.126;2023-04-08T04:11:06;13.40;68.30
63047;DHT22;62025;39.238;9.126;2023-04-08T04:13:32;13.40;68.30
63047;DHT22;62025;39.238;9.126;2023-04-08T04:15:58;13.30;68.20
63047;DHT22;62025;39.238;9.126;2023-04-08T04:18:24;13.40;68.20
63047;DHT22;62025;39.238;9.126;2023-04-08T04:20:50;13.40;68.40
63047;DHT22;62025;39.238;9.126;2023-04-08T04:23:16;13.30;68.50
63047;DHT22;62025;39.238;9.126;2023-04-08T04:25:42;13.30;68.60
63047;DHT22;62025;39.238;9.126;2023-04-08T04:28:08;13.30;68.80
63047;DHT22;62025;39.238;9.126;2023-04-08T04:30:38;13.30;68.80
63047;DHT22;62025;39.238;9.126;2023-04-08T04:33:05;13.20;69.20
63047;DHT22;62025;39.238;9.126;2023-04-08T04:35:32;13.20;69.10
63047;DHT22;62025;39.238;9.126;2023-04-08T04:37:58;13.20;69.40
63047;DHT22;62025;39.238;9.126;2023-04-08T04:40:24;13.30;69.20
63047;DHT22;62025;39.238;9.126;2023-04-08T04:42:50;13.20;69.60
63047;DHT22;62025;39.238;9.126;2023-04-08T04:45:16;13.30;69.40
63047;DHT22;62025;39.238;9.126;2023-04-08T04:47:42;13.30;69.60
63047;DHT22;62025;39.238;9.126;2023-04-08T04:50:08;13.30;69.50
63047;DHT22;62025;39.238;9.126;2023-04-08T04:52:35;13.30;69.60
63047;DHT22;62025;39.238;9.126;2023-04-08T04:55:02;13.30;69.50
63047;DHT22;62025;39.238;9.126;2023-04-08T04:57:28;13.30;69.60
63047;DHT22;62025;39.238;9.126;2023-04-08T04:59:54;13.30;69.50
63047;DHT22;62025;39.238;9.126;2023-04-08T05:02:20;13.30;69.50
63047;DHT22;62025;39.238;9.126;2023-04-08T05:04:46;13.20;69.50
63047;DHT22;62025;39.238;9.126;2023-04-08T05:07:12;13.20;69.80
63047;DHT22;62025;39.238;9.126;2023-04-08T05:09:38;13.30;69.60
63047;DHT22;62025;39.238;9.126;2023-04-08T05:12:04;13.30;69.60
63047;DHT22;62025;39.238;9.126;2023-04-08T05:14:30;13.30;69.60
63047;DHT22;62025;39.238;9.126;2023-04-08T05:16:56;13.20;69.70
63047;DHT22;62025;39.238;9.126;2023-04-08T05:19:22;13.30;69.60
63047;DHT22;62025;39.238;9.126;2023-04-08T05:21:48;13.30;69.70
63047;DHT22;62025;39.238;9.126;2023-04-08T05:24:14;13.30;69.50
63047;DHT22;62025;39.238;9.126;2023-04-08T05:26:41;13.30;69.40
63047;DHT22;62025;39.238;9.126;2023-04-08T05:29:07;13.30;69.50
63047;DHT22;62025;39.238;9.126;2023-04-08T05:31:33;13.30;69.40
63047;DHT22;62025;39.238;9.126;2023-04-08T05:33:59;13.30;69.60
63047;DHT22;62025;39.238;9.126;2023-04-08T05:36:25;13.30;69.50
63047;DHT22;62025;39.238;9.126;2023-04-08T05:38:51;13.30;69.50
63047;DHT22;62025;39.238;9.126;2023-04-08T05:41:17;13.30;69.50
63047;DHT22;62025;39.238;9.126;2023-04-08T05:43:43;13.40;69.50
63047;DHT22;62025;39.238;9.126;2023-04-08T05:46:09;13.40;69.50
63047;DHT22;62025;39.238;9.126;2023-04-08T05:48:35;13.50;69.30
63047;DHT22;62025;39.238;9.126;2023-04-08T05:51:02;13.50;69.30
63047;DHT22;62025;39.238;9.126;2023-04-08T05:53:28;13.50;69.30
63047;DHT22;62025;39.238;9.126;2023-04-08T05:55:54;13.70;68.90
63047;DHT22;62025;39.238;9.126;2023-04-08T05:58:20;13.70;69.00
63047;DHT22;62025;39.238;9.126;2023-04-08T06:00:46;13.80;68.70
63047;DHT22;62025;39.238;9.126;2023-04-08T06:03:12;13.90;68.30
63047;DHT22;62025;39.238;9.126;2023-04-08T06:05:38;13.90;68.20
63047;DHT22;62025;39.238;9.126;2023-04-08T06:08:04;14.00;68.10
63047;DHT22;62025;39.238;9.126;2023-04-08T06:10:30;13.90;68.30
63047;DHT22;62025;39.238;9.126;2023-04-08T06:12:56;13.80;68.70
63047;DHT22;62025;39.238;9.126;2023-04-08T06:15:22;14.00;68.20
63047;DHT22;62025;39.238;9.126;2023-04-08T06:17:48;14.20;67.80
63047;DHT22;62025;39.238;9.126;2023-04-08T06:20:14;14.30;67.50
63047;DHT22;62025;39.238;9.126;2023-04-08T06:22:40;14.40;67.20
63047;DHT22;62025;39.238;9.126;2023-04-08T06:25:06;14.30;67.50
63047;DHT22;62025;39.238;9.126;2023-04-08T06:27:33;14.40;67.30
63047;DHT22;62025;39.238;9.126;2023-04-08T06:29:59;14.30;67.50
63047;DHT22;62025;39.238;9.126;2023-04-08T06:32:26;14.30;67.80
63047;DHT22;62025;39.238;9.126;2023-04-08T06:34:52;14.30;67.90
63047;DHT22;62025;39.238;9.126;2023-04-08T06:37:18;14.40;67.80
63047;DHT22;62025;39.238;9.126;2023-04-08T06:39:43;14.50;67.70
63047;DHT22;62025;39.238;9.126;2023-04-08T06:42:10;14.70;67.30
63047;DHT22;62025;39.238;9.126;2023-04-08T06:45:01;14.70;67.20
63047;DHT22;62025;39.238;9.126;2023-04-08T06:47:27;14.70;67.30
63047;DHT22;62025;39.238;9.126;2023-04-08T06:49:53;14.70;67.20
63047;DHT22;62025;39.238;9.126;2023-04-08T06:52:19;14.70;67.30
63047;DHT22;62025;39.238;9.126;2023-04-08T06:54:45;14.60;67.50
63047;DHT22;62025;39.238;9.126;2023-04-08T06:57:11;14.70;67.70
63047;DHT22;62025;39.238;9.126;2023-04-08T06:59:37;14.70;67.90
63047;DHT22;62025;39.238;9.126;2023-04-08T07:02:03;14.70;67.90
63047;DHT22;62025;39.238;9.126;2023-04-08T07:04:30;14.70;67.90
63047;DHT22;62025;39.238;9.126;2023-04-08T07:06:56;14.80;67.60
63047;DHT22;62025;39.238;9.126;2023-04-08T07:09:22;14.80;67.60
63047;DHT22;62025;39.238;9.126;2023-04-08T07:11:48;14.90;67.60
63047;DHT22;62025;39.238;9.126;2023-04-08T07:14:14;15.00;67.50
63047;DHT22;62025;39.238;9.126;2023-04-08T07:16:40;15.20;67.20
63047;DHT22;62025;39.238;9.126;2023-04-08T07:19:06;15.30;66.80
63047;DHT22;62025;39.238;9.126;2023-04-08T07:21:32;15.40;66.50
63047;DHT22;62025;39.238;9.126;2023-04-08T07:23:58;15.60;66.00
63047;DHT22;62025;39.238;9.126;2023-04-08T07:26:24;15.90;65.20
63047;DHT22;62025;39.238;9.126;2023-04-08T07:28:52;16.10;64.50
63047;DHT22;62025;39.238;9.126;2023-04-08T07:31:18;16.10;64.30
63047;DHT22;62025;39.238;9.126;2023-04-08T07:33:45;16.20;64.20
63047;DHT22;62025;39.238;9.126;2023-04-08T07:36:12;16.30;63.90
63047;DHT22;62025;39.238;9.126;2023-04-08T07:38:39;16.20;64.10
63047;DHT22;62025;39.238;9.126;2023-04-08T07:41:05;16.30;63.90
63047;DHT22;62025;39.238;9.126;2023-04-08T07:43:32;16.30;64.00
63047;DHT22;62025;39.238;9.126;2023-04-08T07:46:02;16.30;64.20
63047;DHT22;62025;39.238;9.126;2023-04-08T07:48:30;16.40;63.50
63047;DHT22;62025;39.238;9.126;2023-04-08T07:50:57;16.70;63.20
63047;DHT22;62025;39.238;9.126;2023-04-08T07:53:23;17.00;62.10
63047;DHT22;62025;39.238;9.126;2023-04-08T07:55:51;17.40;60.80
63047;DHT22;62025;39.238;9.126;2023-04-08T07:58:17;18.00;59.10
63047;DHT22;62025;39.238;9.126;2023-04-08T08:00:43;18.40;57.50
63047;DHT22;62025;39.238;9.126;2023-04-08T08:03:09;18.70;57.00
63047;DHT22;62025;39.238;9.126;2023-04-08T08:05:35;18.80;55.90
63047;DHT22;62025;39.238;9.126;2023-04-08T08:08:02;18.90;55.90
63047;DHT22;62025;39.238;9.126;2023-04-08T08:10:28;19.30;55.20
63047;DHT22;62025;39.238;9.126;2023-04-08T08:12:54;19.40;55.00
63047;DHT22;62025;39.238;9.126;2023-04-08T08:15:20;19.60;54.80
63047;DHT22;62025;39.238;9.126;2023-04-08T08:17:46;19.90;54.20
63047;DHT22;62025;39.238;9.126;2023-04-08T08:20:12;19.90;53.90
63047;DHT22;62025;39.238;9.126;2023-04-08T08:22:38;19.90;54.00
63047;DHT22;62025;39.238;9.126;2023-04-08T08:25:05;20.10;53.20
63047;DHT22;62025;39.238;9.126;2023-04-08T08:27:33;20.30;53.10
63047;DHT22;62025;39.238;9.126;2023-04-08T08:29:59;20.40;52.70
63047;DHT22;62025;39.238;9.126;2023-04-08T08:32:25;20.40;52.50
63047;DHT22;62025;39.238;9.126;2023-04-08T08:34:51;20.40;52.40
63047;DHT22;62025;39.238;9.126;2023-04-08T08:37:17;20.40;51.30
63047;DHT22;62025;39.238;9.126;2023-04-08T08:39:43;20.10;51.80
63047;DHT22;62025;39.238;9.126;2023-04-08T08:44:49;19.90;51.00
63047;DHT22;62025;39.238;9.126;2023-04-08T08:47:15;19.80;51.10
63047;DHT22;62025;39.238;9.126;2023-04-08T08:49:42;19.70;51.20
63047;DHT22;62025;39.238;9.126;2023-04-08T08:52:09;19.80;51.40
63047;DHT22;62025;39.238;9.126;2023-04-08T08:54:36;19.90;51.40
63047;DHT22;62025;39.238;9.126;2023-04-08T08:57:02;20.10;51.10
63047;DHT22;62025;39.238;9.126;2023-04-08T08:59:29;20.30;50.80
63047;DHT22;62025;39.238;9.126;2023-04-08T09:01:55;20.20;50.40
63047;DHT22;62025;39.238;9.126;2023-04-08T09:04:21;20.40;50.30
63047;DHT22;62025;39.238;9.126;2023-04-08T09:06:49;20.40;49.10
63047;DHT22;62025;39.238;9.126;2023-04-08T09:09:17;20.40;48.80
63047;DHT22;62025;39.238;9.126;2023-04-08T09:11:46;20.60;49.00
63047;DHT22;62025;39.238;9.126;2023-04-08T09:14:25;20.80;48.30
63047;DHT22;62025;39.238;9.126;2023-04-08T09:16:51;21.00;49.60
63047;DHT22;62025;39.238;9.126;2023-04-08T09:19:18;21.40;48.70
63047;DHT22;62025;39.238;9.126;2023-04-08T09:21:44;21.40;47.80
63047;DHT22;62025;39.238;9.126;2023-04-08T09:24:28;21.50;47.20
63047;DHT22;62025;39.238;9.126;2023-04-08T09:26:55;21.70;46.30
63047;DHT22;62025;39.238;9.126;2023-04-08T09:29:23;21.90;45.40
63047;DHT22;62025;39.238;9.126;2023-04-08T09:31:58;21.90;44.30
63047;DHT22;62025;39.238;9.126;2023-04-08T09:34:27;21.90;43.00
63047;DHT22;62025;39.238;9.126;2023-04-08T09:36:54;21.90;42.90
63047;DHT22;62025;39.238;9.126;2023-04-08T09:39:20;21.80;42.30
63047;DHT22;62025;39.238;9.126;2023-04-08T09:41:48;21.90;42.20
63047;DHT22;62025;39.238;9.126;2023-04-08T09:44:17;22.00;41.70
63047;DHT22;62025;39.238;9.126;2023-04-08T09:55:15;22.10;40.60
63047;DHT22;62025;39.238;9.126;2023-04-08T10:00:46;21.90;40.00
63047;DHT22;62025;39.238;9.126;2023-04-08T10:05:43;21.70;42.00
63047;DHT22;62025;39.238;9.126;2023-04-08T10:08:09;21.40;44.50
63047;DHT22;62025;39.238;9.126;2023-04-08T10:10:38;21.80;44.70
63047;DHT22;62025;39.238;9.126;2023-04-08T10:13:06;22.00;44.60
63047;DHT22;62025;39.238;9.126;2023-04-08T10:15:36;21.90;44.50
63047;DHT22;62025;39.238;9.126;2023-04-08T10:23:10;22.00;44.20
63047;DHT22;62025;39.238;9.126;2023-04-08T10:25:48;22.00;43.60
63047;DHT22;62025;39.238;9.126;2023-04-08T10:30:47;22.10;43.10
63047;DHT22;62025;39.238;9.126;2023-04-08T10:33:31;22.10;43.10
63047;DHT22;62025;39.238;9.126;2023-04-08T10:36:11;21.90;43.90
63047;DHT22;62025;39.238;9.126;2023-04-08T10:38:41;21.50;44.60
63047;DHT22;62025;39.238;9.126;2023-04-08T10:41:11;21.60;44.40
63047;DHT22;62025;39.238;9.126;2023-04-08T10:43:46;21.80;43.80
63047;DHT22;62025;39.238;9.126;2023-04-08T10:46:12;21.90;43.80
63047;DHT22;62025;39.238;9.126;2023-04-08T10:48:38;21.90;44.00
63047;DHT22;62025;39.238;9.126;2023-04-08T10:51:04;21.90;44.00
63047;DHT22;62025;39.238;9.126;2023-04-08T10:53:35;21.70;44.00
63047;DHT22;62025;39.238;9.126;2023-04-08T10:58:49;21.20;46.50
63047;DHT22;62025;39.238;9.126;2023-04-08T11:01:17;21.00;46.90
63047;DHT22;62025;39.238;9.126;2023-04-08T11:03:43;21.10;46.40
63047;DHT22;62025;39.238;9.126;2023-04-08T11:06:10;20.90;47.60
63047;DHT22;62025;39.238;9.126;2023-04-08T11:08:36;20.80;48.20
63047;DHT22;62025;39.238;9.126;2023-04-08T11:11:04;20.70;48.60
63047;DHT22;62025;39.238;9.126;2023-04-08T11:13:35;20.50;49.50
63047;DHT22;62025;39.238;9.126;2023-04-08T11:16:03;20.40;49.20
63047;DHT22;62025;39.238;9.126;2023-04-08T11:18:30;20.30;49.30
63047;DHT22;62025;39.238;9.126;2023-04-08T11:20:57;20.60;48.70
63047;DHT22;62025;39.238;9.126;2023-04-08T11:23:26;20.60;49.00
63047;DHT22;62025;39.238;9.126;2023-04-08T11:25:52;20.30;48.70
63047;DHT22;62025;39.238;9.126;2023-04-08T11:28:19;20.20;48.70
63047;DHT22;62025;39.238;9.126;2023-04-08T11:30:46;20.30;48.70
63047;DHT22;62025;39.238;9.126;2023-04-08T11:33:13;20.40;47.90
63047;DHT22;62025;39.238;9.126;2023-04-08T11:35:43;20.50;47.30
63047;DHT22;62025;39.238;9.126;2023-04-08T11:38:10;20.50;47.70
63047;DHT22;62025;39.238;9.126;2023-04-08T11:40:37;20.40;47.80
63047;DHT22;62025;39.238;9.126;2023-04-08T11:43:10;20.50;47.30
63047;DHT22;62025;39.238;9.126;2023-04-08T11:45:38;20.60;46.10
63047;DHT22;62025;39.238;9.126;2023-04-08T11:50:36;20.60;43.90
63047;DHT22;62025;39.238;9.126;2023-04-08T11:53:01;20.70;42.40
63047;DHT22;62025;39.238;9.126;2023-04-08T11:55:32;20.80;42.90
63047;DHT22;62025;39.238;9.126;2023-04-08T11:58:03;20.80;42.50
63047;DHT22;62025;39.238;9.126;2023-04-08T12:00:30;20.80;42.80
63047;DHT22;62025;39.238;9.126;2023-04-08T12:02:57;20.70;42.50
63047;DHT22;62025;39.238;9.126;2023-04-08T12:05:23;20.70;42.60
63047;DHT22;62025;39.238;9.126;2023-04-08T12:07:50;20.60;43.20
63047;DHT22;62025;39.238;9.126;2023-04-08T12:10:16;20.70;41.50
63047;DHT22;62025;39.238;9.126;2023-04-08T12:12:42;20.80;40.90
63047;DHT22;62025;39.238;9.126;2023-04-08T12:15:08;20.90;40.30
63047;DHT22;62025;39.238;9.126;2023-04-08T12:17:35;20.70;39.00
63047;DHT22;62025;39.238;9.126;2023-04-08T12:20:04;20.70;39.10
63047;DHT22;62025;39.238;9.126;2023-04-08T12:22:31;20.80;40.20
63047;DHT22;62025;39.238;9.126;2023-04-08T12:24:57;20.80;40.40
63047;DHT22;62025;39.238;9.126;2023-04-08T12:27:23;20.70;40.20
63047;DHT22;62025;39.238;9.126;2023-04-08T12:29:49;20.80;40.70
63047;DHT22;62025;39.238;9.126;2023-04-08T12:32:16;20.70;42.70
63047;DHT22;62025;39.238;9.126;2023-04-08T12:34:42;20.60;42.30
63047;DHT22;62025;39.238;9.126;2023-04-08T12:37:08;20.70;42.80
63047;DHT22;62025;39.238;9.126;2023-04-08T12:39:35;20.70;43.50
63047;DHT22;62025;39.238;9.126;2023-04-08T12:42:01;20.60;43.50
63047;DHT22;62025;39.238;9.126;2023-04-08T12:44:27;20.70;43.50
63047;DHT22;62025;39.238;9.126;2023-04-08T12:46:53;20.70;43.70
63047;DHT22;62025;39.238;9.126;2023-04-08T12:49:20;20.60;43.70
63047;DHT22;62025;39.238;9.126;2023-04-08T12:51:46;20.50;43.20
63047;DHT22;62025;39.238;9.126;2023-04-08T12:54:12;20.40;43.50
63047;DHT22;62025;39.238;9.126;2023-04-08T12:56:38;20.40;42.60
63047;DHT22;62025;39.238;9.126;2023-04-08T12:59:04;20.50;42.70
63047;DHT22;62025;39.238;9.126;2023-04-08T13:01:30;20.50;43.30
63047;DHT22;62025;39.238;9.126;2023-04-08T13:03:56;20.50;43.20
63047;DHT22;62025;39.238;9.126;2023-04-08T13:06:22;20.60;42.90
63047;DHT22;62025;39.238;9.126;2023-04-08T13:08:48;20.60;42.40
63047;DHT22;62025;39.238;9.126;2023-04-08T13:11:14;20.60;42.90
63047;DHT22;62025;39.238;9.126;2023-04-08T13:13:40;20.60;43.00
63047;DHT22;62025;39.238;9.126;2023-04-08T13:16:06;20.60;43.30
63047;DHT22;62025;39.238;9.126;2023-04-08T13:18:32;20.60;41.70
63047;DHT22;62025;39.238;9.126;2023-04-08T13:20:58;20.70;41.10
63047;DHT22;62025;39.238;9.126;2023-04-08T13:23:24;20.80;40.60
63047;DHT22;62025;39.238;9.126;2023-04-08T13:25:51;20.80;39.90
63047;DHT22;62025;39.238;9.126;2023-04-08T13:28:17;20.80;40.20
63047;DHT22;62025;39.238;9.126;2023-04-08T13:30:43;20.80;41.00
63047;DHT22;62025;39.238;9.126;2023-04-08T13:33:09;20.70;40.90
63047;DHT22;62025;39.238;9.126;2023-04-08T13:35:35;20.60;39.60
63047;DHT22;62025;39.238;9.126;2023-04-08T13:38:01;20.90;39.60
63047;DHT22;62025;39.238;9.126;2023-04-08T13:40:27;20.90;39.70
63047;DHT22;62025;39.238;9.126;2023-04-08T13:42:53;20.80;41.00
63047;DHT22;62025;39.238;9.126;2023-04-08T13:45:19;20.70;41.10
63047;DHT22;62025;39.238;9.126;2023-04-08T13:47:45;20.60;41.10
63047;DHT22;62025;39.238;9.126;2023-04-08T13:50:11;20.70;41.60
63047;DHT22;62025;39.238;9.126;2023-04-08T13:52:37;20.80;42.30
63047;DHT22;62025;39.238;9.126;2023-04-08T13:55:04;20.70;41.90
63047;DHT22;62025;39.238;9.126;2023-04-08T13:57:30;20.80;41.80
63047;DHT22;62025;39.238;9.126;2023-04-08T13:59:56;20.80;41.90
63047;DHT22;62025;39.238;9.126;2023-04-08T14:02:22;20.80;41.90
63047;DHT22;62025;39.238;9.126;2023-04-08T14:04:48;20.80;42.00
63047;DHT22;62025;39.238;9.126;2023-04-08T14:07:15;20.60;41.80
63047;DHT22;62025;39.238;9.126;2023-04-08T14:09:41;20.50;42.40
63047;DHT22;62025;39.238;9.126;2023-04-08T14:12:07;20.40;42.40
63047;DHT22;62025;39.238;9.126;2023-04-08T14:14:33;20.40;42.50
63047;DHT22;62025;39.238;9.126;2023-04-08T14:16:59;20.50;43.10
63047;DHT22;62025;39.238;9.126;2023-04-08T14:19:25;20.40;43.50
63047;DHT22;62025;39.238;9.126;2023-04-08T14:21:51;20.40;43.70
63047;DHT22;62025;39.238;9.126;2023-04-08T14:24:17;20.50;43.60
63047;DHT22;62025;39.238;9.126;2023-04-08T14:26:43;20.50;43.60
63047;DHT22;62025;39.238;9.126;2023-04-08T14:29:09;20.50;43.90
63047;DHT22;62025;39.238;9.126;2023-04-08T14:31:35;20.50;44.00
63047;DHT22;62025;39.238;9.126;2023-04-08T14:34:01;20.40;44.10
63047;DHT22;62025;39.238;9.126;2023-04-08T14:36:27;20.40;44.60
63047;DHT22;62025;39.238;9.126;2023-04-08T14:38:54;20.40;44.50
63047;DHT22;62025;39.238;9.126;2023-04-08T14:41:20;20.40;44.00
63047;DHT22;62025;39.238;9.126;2023-04-08T14:43:47;20.40;44.30
63047;DHT22;62025;39.238;9.126;2023-04-08T14:46:13;20.40;44.70
63047;DHT22;62025;39.238;9.126;2023-04-08T14:48:41;20.40;45.40
63047;DHT22;62025;39.238;9.126;2023-04-08T14:51:07;20.40;45.50
63047;DHT22;62025;39.238;9.126;2023-04-08T14:53:33;20.40;44.80
63047;DHT22;62025;39.238;9.126;2023-04-08T14:55:59;20.40;44.60
63047;DHT22;62025;39.238;9.126;2023-04-08T14:58:25;20.30;43.90
63047;DHT22;62025;39.238;9.126;2023-04-08T15:00:51;20.30;44.10
63047;DHT22;62025;39.238;9.126;2023-04-08T15:03:17;20.30;44.40
63047;DHT22;62025;39.238;9.126;2023-04-08T15:05:54;20.30;45.10
63047;DHT22;62025;39.238;9.126;2023-04-08T15:08:21;20.40;44.60
63047;DHT22;62025;39.238;9.126;2023-04-08T15:10:47;20.30;44.70
63047;DHT22;62025;39.238;9.126;2023-04-08T15:13:13;20.40;44.20
63047;DHT22;62025;39.238;9.126;2023-04-08T15:15:39;20.40;44.50
63047;DHT22;62025;39.238;9.126;2023-04-08T15:18:05;20.40;44.30
63047;DHT22;62025;39.238;9.126;2023-04-08T15:20:30;20.30;44.40
63047;DHT22;62025;39.238;9.126;2023-04-08T15:22:56;20.30;44.70
63047;DHT22;62025;39.238;9.126;2023-04-08T15:25:22;20.30;44.50
63047;DHT22;62025;39.238;9.126;2023-04-08T15:27:48;20.30;45.00
63047;DHT22;62025;39.238;9.126;2023-04-08T15:30:15;20.30;45.30
63047;DHT22;62025;39.238;9.126;2023-04-08T15:32:41;20.20;44.90
63047;DHT22;62025;39.238;9.126;2023-04-08T15:35:08;20.20;45.50
63047;DHT22;62025;39.238;9.126;2023-04-08T15:37:34;20.30;45.80
63047;DHT22;62025;39.238;9.126;2023-04-08T15:40:00;20.20;45.90
63047;DHT22;62025;39.238;9.126;2023-04-08T15:42:26;20.10;46.30
63047;DHT22;62025;39.238;9.126;2023-04-08T15:44:52;20.20;46.20
63047;DHT22;62025;39.238;9.126;2023-04-08T15:47:18;20.20;45.90
63047;DHT22;62025;39.238;9.126;2023-04-08T15:49:44;20.20;45.70
63047;DHT22;62025;39.238;9.126;2023-04-08T15:52:10;20.20;45.90
63047;DHT22;62025;39.238;9.126;2023-04-08T15:54:36;20.30;46.20
63047;DHT22;62025;39.238;9.126;2023-04-08T15:57:02;20.10;46.60
63047;DHT22;62025;39.238;9.126;2023-04-08T15:59:28;20.10;47.00
63047;DHT22;62025;39.238;9.126;2023-04-08T16:01:55;19.90;47.80
63047;DHT22;62025;39.238;9.126;2023-04-08T16:04:21;19.90;47.90
63047;DHT22;62025;39.238;9.126;2023-04-08T16:06:48;20.00;48.20